sensor_id;sensor_type;location;lat;lon;timestamp;P1;durP1;ratioP1;P2;durP2;ratioP2
70148;SDS011;57514;52.164;5.282;2022-12-29T00:02:18;5.22;;;3.08;;
70148;SDS011;57514;52.164;5.282;2022-12-29T00:04:45;5.82;;;3.03;;
70148;SDS011;57514;52.164;5.282;2022-12-29T00:07:13;7.13;;;3.22;;
70148;SDS011;57514;52.164;5.282;2022-12-29T00:09:40;5.45;;;2.80;;
70148;SDS011;57514;52.164;5.282;2022-12-29T00:12:07;5.35;;;2.83;;
70148;SDS011;57514;52.164;5.282;2022-12-29T00:14:34;5.18;;;2.63;;
70148;SDS011;57514;52.164;5.282;2022-12-29T00:17:20;5.75;;;2.60;;
70148;SDS011;57514;52.164;5.282;2022-12-29T00:19:47;7.03;;;3.20;;
70148;SDS011;57514;52.164;5.282;2022-12-29T00:22:35;5.22;;;2.63;;
70148;SDS011;57514;52.164;5.282;2022-12-29T00:28:10;5.15;;;2.30;;
70148;SDS011;57514;52.164;5.282;2022-12-29T00:30:59;4.78;;;2.38;;
70148;SDS011;57514;52.164;5.282;2022-12-29T00:33:45;4.95;;;2.42;;
70148;SDS011;57514;52.164;5.282;2022-12-29T00:36:37;4.80;;;2.60;;
70148;SDS011;57514;52.164;5.282;2022-12-29T00:39:07;5.85;;;3.10;;
70148;SDS011;57514;52.164;5.282;2022-12-29T00:41:55;5.78;;;3.08;;
70148;SDS011;57514;52.164;5.282;2022-12-29T00:44:42;5.97;;;2.75;;
70148;SDS011;57514;52.164;5.282;2022-12-29T00:47:09;5.38;;;2.55;;
70148;SDS011;57514;52.164;5.282;2022-12-29T00:49:37;6.43;;;2.60;;
70148;SDS011;57514;52.164;5.282;2022-12-29T00:52:08;5.18;;;2.60;;
70148;SDS011;57514;52.164;5.282;2022-12-29T00:54:36;5.50;;;3.20;;
70148;SDS011;57514;52.164;5.282;2022-12-29T00:57:05;4.97;;;2.60;;
70148;SDS011;57514;52.164;5.282;2022-12-29T00:59:36;6.13;;;2.85;;
70148;SDS011;57514;52.164;5.282;2022-12-29T01:02:03;5.53;;;2.78;;
70148;SDS011;57514;52.164;5.282;2022-12-29T01:04:31;5.00;;;2.83;;
70148;SDS011;57514;52.164;5.282;2022-12-29T01:07:00;4.13;;;2.25;;
70148;SDS011;57514;52.164;5.282;2022-12-29T01:09:27;4.82;;;2.42;;
70148;SDS011;57514;52.164;5.282;2022-12-29T01:12:13;4.47;;;2.05;;
70148;SDS011;57514;52.164;5.282;2022-12-29T01:14:40;3.70;;;2.00;;
70148;SDS011;57514;52.164;5.282;2022-12-29T01:17:08;2.47;;;1.85;;
70148;SDS011;57514;52.164;5.282;2022-12-29T01:19:35;5.47;;;2.50;;
70148;SDS011;57514;52.164;5.282;2022-12-29T01:22:02;5.35;;;2.20;;
70148;SDS011;57514;52.164;5.282;2022-12-29T01:24:30;4.28;;;2.35;;
70148;SDS011;57514;52.164;5.282;2022-12-29T01:26:57;4.30;;;2.92;;
70148;SDS011;57514;52.164;5.282;2022-12-29T01:29:24;6.20;;;3.00;;
70148;SDS011;57514;52.164;5.282;2022-12-29T01:31:51;5.45;;;2.58;;
70148;SDS011;57514;52.164;5.282;2022-12-29T01:34:19;5.93;;;3.03;;
70148;SDS011;57514;52.164;5.282;2022-12-29T01:36:46;4.75;;;2.35;;
70148;SDS011;57514;52.164;5.282;2022-12-29T01:39:13;7.95;;;3.28;;
70148;SDS011;57514;52.164;5.282;2022-12-29T01:41:41;4.90;;;2.45;;
70148;SDS011;57514;52.164;5.282;2022-12-29T01:46:54;5.95;;;2.78;;
70148;SDS011;57514;52.164;5.282;2022-12-29T01:49:23;5.90;;;2.70;;
70148;SDS011;57514;52.164;5.282;2022-12-29T01:51:56;3.92;;;2.60;;
70148;SDS011;57514;52.164;5.282;2022-12-29T01:54:26;5.15;;;2.70;;
70148;SDS011;57514;52.164;5.282;2022-12-29T01:56:55;4.70;;;2.70;;
70148;SDS011;57514;52.164;5.282;2022-12-29T01:59:25;4.88;;;2.75;;
70148;SDS011;57514;52.164;5.282;2022-12-29T02:01:56;6.35;;;3.00;;
70148;SDS011;57514;52.164;5.282;2022-12-29T02:04:25;6.75;;;2.92;;
70148;SDS011;57514;52.164;5.282;2022-12-29T02:06:57;4.50;;;2.55;;
70148;SDS011;57514;52.164;5.282;2022-12-29T02:09:26;5.13;;;2.80;;
70148;SDS011;57514;52.164;5.282;2022-12-29T02:11:53;4.70;;;1.60;;
70148;SDS011;57514;52.164;5.282;2022-12-29T02:14:21;3.40;;;2.33;;
70148;SDS011;57514;52.164;5.282;2022-12-29T02:22:24;3.42;;;2.25;;
70148;SDS011;57514;52.164;5.282;2022-12-29T02:24:59;4.35;;;2.70;;
70148;SDS011;57514;52.164;5.282;2022-12-29T02:27:40;4.18;;;2.22;;
70148;SDS011;57514;52.164;5.282;2022-12-29T02:35:39;4.80;;;2.22;;
70148;SDS011;57514;52.164;5.282;2022-12-29T02:40:55;3.10;;;1.73;;
70148;SDS011;57514;52.164;5.282;2022-12-29T02:46:03;3.17;;;2.03;;
70148;SDS011;57514;52.164;5.282;2022-12-29T02:48:39;4.18;;;2.13;;
70148;SDS011;57514;52.164;5.282;2022-12-29T02:51:31;7.65;;;1.85;;
70148;SDS011;57514;52.164;5.282;2022-12-29T02:53:56;2.78;;;1.50;;
70148;SDS011;57514;52.164;5.282;2022-12-29T02:56:43;4.30;;;1.58;;
70148;SDS011;57514;52.164;5.282;2022-12-29T02:59:13;6.00;;;1.80;;
70148;SDS011;57514;52.164;5.282;2022-12-29T03:10:10;5.18;;;1.98;;
70148;SDS011;57514;52.164;5.282;2022-12-29T03:13:26;2.85;;;1.58;;
70148;SDS011;57514;52.164;5.282;2022-12-29T03:23:41;3.60;;;1.45;;
70148;SDS011;57514;52.164;5.282;2022-12-29T03:26:10;3.88;;;2.03;;
70148;SDS011;57514;52.164;5.282;2022-12-29T03:28:41;5.78;;;1.80;;
70148;SDS011;57514;52.164;5.282;2022-12-29T03:31:14;4.35;;;2.05;;
70148;SDS011;57514;52.164;5.282;2022-12-29T03:33:42;6.78;;;1.83;;
70148;SDS011;57514;52.164;5.282;2022-12-29T03:36:12;2.63;;;1.48;;
70148;SDS011;57514;52.164;5.282;2022-12-29T03:38:43;4.75;;;1.60;;
70148;SDS011;57514;52.164;5.282;2022-12-29T03:41:14;3.78;;;1.38;;
70148;SDS011;57514;52.164;5.282;2022-12-29T03:43:43;4.32;;;1.67;;
70148;SDS011;57514;52.164;5.282;2022-12-29T03:46:11;6.05;;;1.65;;
70148;SDS011;57514;52.164;5.282;2022-12-29T03:48:40;6.30;;;1.48;;
70148;SDS011;57514;52.164;5.282;2022-12-29T03:51:10;3.72;;;1.15;;
70148;SDS011;57514;52.164;5.282;2022-12-29T03:53:37;2.97;;;1.60;;
70148;SDS011;57514;52.164;5.282;2022-12-29T03:56:05;3.05;;;1.60;;
70148;SDS011;57514;52.164;5.282;2022-12-29T03:58:32;2.08;;;1.30;;
70148;SDS011;57514;52.164;5.282;2022-12-29T04:01:09;3.72;;;1.70;;
70148;SDS011;57514;52.164;5.282;2022-12-29T04:03:37;4.68;;;1.58;;
70148;SDS011;57514;52.164;5.282;2022-12-29T04:06:06;1.95;;;1.67;;
70148;SDS011;57514;52.164;5.282;2022-12-29T04:08:46;6.40;;;1.60;;
70148;SDS011;57514;52.164;5.282;2022-12-29T04:11:13;1.83;;;1.48;;
70148;SDS011;57514;52.164;5.282;2022-12-29T04:13:41;4.80;;;1.88;;
70148;SDS011;57514;52.164;5.282;2022-12-29T04:16:12;6.28;;;1.88;;
70148;SDS011;57514;52.164;5.282;2022-12-29T04:18:40;5.43;;;1.92;;
70148;SDS011;57514;52.164;5.282;2022-12-29T04:21:08;3.70;;;1.70;;
70148;SDS011;57514;52.164;5.282;2022-12-29T04:23:38;1.40;;;1.23;;
70148;SDS011;57514;52.164;5.282;2022-12-29T04:26:07;5.75;;;2.33;;
70148;SDS011;57514;52.164;5.282;2022-12-29T04:29:04;2.88;;;1.25;;
70148;SDS011;57514;52.164;5.282;2022-12-29T04:31:57;8.55;;;2.15;;
70148;SDS011;57514;52.164;5.282;2022-12-29T04:34:24;4.15;;;1.60;;
70148;SDS011;57514;52.164;5.282;2022-12-29T04:36:52;4.32;;;1.60;;
70148;SDS011;57514;52.164;5.282;2022-12-29T04:39:19;8.98;;;2.13;;
70148;SDS011;57514;52.164;5.282;2022-12-29T04:41:47;5.60;;;1.80;;
70148;SDS011;57514;52.164;5.282;2022-12-29T04:44:18;4.70;;;1.40;;
70148;SDS011;57514;52.164;5.282;2022-12-29T04:47:05;3.42;;;1.70;;
70148;SDS011;57514;52.164;5.282;2022-12-29T04:49:51;7.85;;;1.33;;
70148;SDS011;57514;52.164;5.282;2022-12-29T04:52:31;7.85;;;1.92;;
70148;SDS011;57514;52.164;5.282;2022-12-29T04:54:58;6.18;;;1.80;;
70148;SDS011;57514;52.164;5.282;2022-12-29T04:57:26;7.18;;;2.30;;
70148;SDS011;57514;52.164;5.282;2022-12-29T04:59:56;3.80;;;1.60;;
70148;SDS011;57514;52.164;5.282;2022-12-29T05:02:23;7.32;;;1.48;;
70148;SDS011;57514;52.164;5.282;2022-12-29T05:04:51;7.28;;;2.38;;
70148;SDS011;57514;52.164;5.282;2022-12-29T05:09:49;5.55;;;1.60;;
70148;SDS011;57514;52.164;5.282;2022-12-29T05:12:17;5.95;;;1.38;;
70148;SDS011;57514;52.164;5.282;2022-12-29T05:14:55;6.13;;;1.75;;
70148;SDS011;57514;52.164;5.282;2022-12-29T05:17:23;4.78;;;1.20;;
70148;SDS011;57514;52.164;5.282;2022-12-29T05:19:51;6.63;;;2.20;;
70148;SDS011;57514;52.164;5.282;2022-12-29T05:22:18;6.18;;;1.92;;
70148;SDS011;57514;52.164;5.282;2022-12-29T05:24:45;9.02;;;1.90;;
70148;SDS011;57514;52.164;5.282;2022-12-29T05:27:13;7.72;;;2.00;;
70148;SDS011;57514;52.164;5.282;2022-12-29T05:29:53;10.85;;;1.60;;
70148;SDS011;57514;52.164;5.282;2022-12-29T05:32:24;6.65;;;1.77;;
70148;SDS011;57514;52.164;5.282;2022-12-29T05:34:52;8.57;;;2.22;;
70148;SDS011;57514;52.164;5.282;2022-12-29T05:37:20;16.33;;;2.22;;
70148;SDS011;57514;52.164;5.282;2022-12-29T05:39:47;7.57;;;1.85;;
70148;SDS011;57514;52.164;5.282;2022-12-29T05:42:14;5.38;;;1.55;;
70148;SDS011;57514;52.164;5.282;2022-12-29T05:44:50;10.35;;;2.10;;
70148;SDS011;57514;52.164;5.282;2022-12-29T05:47:24;7.38;;;1.73;;
70148;SDS011;57514;52.164;5.282;2022-12-29T05:50:09;9.82;;;2.03;;
70148;SDS011;57514;52.164;5.282;2022-12-29T05:52:55;12.85;;;2.13;;
70148;SDS011;57514;52.164;5.282;2022-12-29T05:55:22;6.72;;;1.48;;
70148;SDS011;57514;52.164;5.282;2022-12-29T05:57:52;6.50;;;1.40;;
70148;SDS011;57514;52.164;5.282;2022-12-29T06:00:19;9.23;;;1.63;;
70148;SDS011;57514;52.164;5.282;2022-12-29T06:02:46;9.32;;;1.77;;
70148;SDS011;57514;52.164;5.282;2022-12-29T06:05:15;8.00;;;1.88;;
70148;SDS011;57514;52.164;5.282;2022-12-29T06:07:43;19.08;;;2.50;;
70148;SDS011;57514;52.164;5.282;2022-12-29T06:10:13;6.78;;;2.25;;
70148;SDS011;57514;52.164;5.282;2022-12-29T06:12:44;7.80;;;2.05;;
70148;SDS011;57514;52.164;5.282;2022-12-29T06:15:13;10.25;;;2.05;;
70148;SDS011;57514;52.164;5.282;2022-12-29T06:17:41;9.95;;;2.25;;
70148;SDS011;57514;52.164;5.282;2022-12-29T06:20:09;6.85;;;2.03;;
70148;SDS011;57514;52.164;5.282;2022-12-29T06:22:36;9.75;;;2.30;;
70148;SDS011;57514;52.164;5.282;2022-12-29T06:25:04;13.10;;;2.35;;
70148;SDS011;57514;52.164;5.282;2022-12-29T06:27:33;9.48;;;2.28;;
70148;SDS011;57514;52.164;5.282;2022-12-29T06:30:02;11.50;;;2.08;;
70148;SDS011;57514;52.164;5.282;2022-12-29T06:32:30;8.60;;;2.08;;
70148;SDS011;57514;52.164;5.282;2022-12-29T06:35:04;8.23;;;1.92;;
70148;SDS011;57514;52.164;5.282;2022-12-29T06:37:37;8.32;;;2.60;;
70148;SDS011;57514;52.164;5.282;2022-12-29T06:40:05;8.52;;;1.90;;
70148;SDS011;57514;52.164;5.282;2022-12-29T06:42:49;12.02;;;2.97;;
70148;SDS011;57514;52.164;5.282;2022-12-29T06:45:37;10.15;;;2.10;;
70148;SDS011;57514;52.164;5.282;2022-12-29T06:48:05;8.93;;;2.38;;
70148;SDS011;57514;52.164;5.282;2022-12-29T06:50:33;12.05;;;1.90;;
70148;SDS011;57514;52.164;5.282;2022-12-29T06:53:00;10.07;;;2.45;;
70148;SDS011;57514;52.164;5.282;2022-12-29T06:55:28;7.40;;;1.88;;
70148;SDS011;57514;52.164;5.282;2022-12-29T06:57:55;6.40;;;2.13;;
70148;SDS011;57514;52.164;5.282;2022-12-29T07:00:23;9.55;;;2.35;;
70148;SDS011;57514;52.164;5.282;2022-12-29T07:02:51;9.75;;;2.20;;
70148;SDS011;57514;52.164;5.282;2022-12-29T07:05:18;6.78;;;1.70;;
70148;SDS011;57514;52.164;5.282;2022-12-29T07:07:45;10.23;;;2.53;;
70148;SDS011;57514;52.164;5.282;2022-12-29T07:10:13;14.90;;;2.53;;
70148;SDS011;57514;52.164;5.282;2022-12-29T07:12:40;9.10;;;2.35;;
70148;SDS011;57514;52.164;5.282;2022-12-29T07:15:07;7.57;;;2.03;;
70148;SDS011;57514;52.164;5.282;2022-12-29T07:17:35;5.68;;;1.83;;
70148;SDS011;57514;52.164;5.282;2022-12-29T07:20:02;10.90;;;2.38;;
70148;SDS011;57514;52.164;5.282;2022-12-29T07:22:30;10.25;;;2.33;;
70148;SDS011;57514;52.164;5.282;2022-12-29T07:24:57;9.40;;;1.88;;
70148;SDS011;57514;52.164;5.282;2022-12-29T07:27:24;10.82;;;2.40;;
70148;SDS011;57514;52.164;5.282;2022-12-29T07:29:51;8.45;;;2.20;;
70148;SDS011;57514;52.164;5.282;2022-12-29T07:32:19;3.20;;;1.23;;
70148;SDS011;57514;52.164;5.282;2022-12-29T07:34:46;2.97;;;1.50;;
70148;SDS011;57514;52.164;5.282;2022-12-29T07:37:16;4.20;;;1.40;;
70148;SDS011;57514;52.164;5.282;2022-12-29T07:39:44;8.15;;;1.88;;
70148;SDS011;57514;52.164;5.282;2022-12-29T07:42:11;7.22;;;1.95;;
70148;SDS011;57514;52.164;5.282;2022-12-29T07:49:44;6.40;;;1.75;;
70148;SDS011;57514;52.164;5.282;2022-12-29T07:52:12;10.10;;;2.35;;
70148;SDS011;57514;52.164;5.282;2022-12-29T07:54:39;6.50;;;2.25;;
70148;SDS011;57514;52.164;5.282;2022-12-29T07:57:06;4.57;;;2.33;;
70148;SDS011;57514;52.164;5.282;2022-12-29T07:59:34;11.40;;;2.63;;
70148;SDS011;57514;52.164;5.282;2022-12-29T08:02:01;11.60;;;3.17;;
70148;SDS011;57514;52.164;5.282;2022-12-29T08:04:28;13.43;;;3.90;;
70148;SDS011;57514;52.164;5.282;2022-12-29T08:06:55;7.60;;;2.17;;
70148;SDS011;57514;52.164;5.282;2022-12-29T08:09:23;7.50;;;2.20;;
70148;SDS011;57514;52.164;5.282;2022-12-29T08:11:53;11.23;;;3.03;;
70148;SDS011;57514;52.164;5.282;2022-12-29T08:14:20;13.50;;;3.05;;
70148;SDS011;57514;52.164;5.282;2022-12-29T08:16:48;12.85;;;2.45;;
70148;SDS011;57514;52.164;5.282;2022-12-29T08:19:15;11.50;;;3.65;;
70148;SDS011;57514;52.164;5.282;2022-12-29T08:21:42;11.52;;;2.40;;
70148;SDS011;57514;52.164;5.282;2022-12-29T08:24:09;7.53;;;2.20;;
70148;SDS011;57514;52.164;5.282;2022-12-29T08:26:37;13.13;;;3.20;;
70148;SDS011;57514;52.164;5.282;2022-12-29T08:29:05;14.02;;;2.90;;
70148;SDS011;57514;52.164;5.282;2022-12-29T08:31:32;10.95;;;2.70;;
70148;SDS011;57514;52.164;5.282;2022-12-29T08:33:59;10.98;;;2.95;;
70148;SDS011;57514;52.164;5.282;2022-12-29T08:36:29;10.57;;;3.17;;
70148;SDS011;57514;52.164;5.282;2022-12-29T08:38:57;20.90;;;3.55;;
70148;SDS011;57514;52.164;5.282;2022-12-29T08:41:26;10.75;;;2.88;;
70148;SDS011;57514;52.164;5.282;2022-12-29T08:43:53;12.60;;;3.05;;
70148;SDS011;57514;52.164;5.282;2022-12-29T08:46:20;8.00;;;2.72;;
70148;SDS011;57514;52.164;5.282;2022-12-29T08:48:48;7.30;;;2.65;;
70148;SDS011;57514;52.164;5.282;2022-12-29T08:51:15;10.98;;;3.30;;
70148;SDS011;57514;52.164;5.282;2022-12-29T08:53:49;12.20;;;2.20;;
70148;SDS011;57514;52.164;5.282;2022-12-29T08:56:17;12.52;;;3.38;;
70148;SDS011;57514;52.164;5.282;2022-12-29T08:58:48;14.05;;;2.95;;
70148;SDS011;57514;52.164;5.282;2022-12-29T09:01:17;9.57;;;2.90;;
70148;SDS011;57514;52.164;5.282;2022-12-29T09:03:45;9.77;;;2.33;;
70148;SDS011;57514;52.164;5.282;2022-12-29T09:06:32;8.75;;;2.80;;
70148;SDS011;57514;52.164;5.282;2022-12-29T09:09:05;10.50;;;2.50;;
70148;SDS011;57514;52.164;5.282;2022-12-29T09:11:32;16.52;;;2.60;;
70148;SDS011;57514;52.164;5.282;2022-12-29T09:14:00;9.32;;;2.65;;
70148;SDS011;57514;52.164;5.282;2022-12-29T09:16:27;13.88;;;2.40;;
70148;SDS011;57514;52.164;5.282;2022-12-29T09:18:57;5.38;;;1.80;;
70148;SDS011;57514;52.164;5.282;2022-12-29T09:21:27;12.38;;;1.90;;
70148;SDS011;57514;52.164;5.282;2022-12-29T09:23:54;6.03;;;1.80;;
70148;SDS011;57514;52.164;5.282;2022-12-29T09:26:21;4.95;;;1.88;;
70148;SDS011;57514;52.164;5.282;2022-12-29T09:28:48;5.53;;;1.85;;
70148;SDS011;57514;52.164;5.282;2022-12-29T09:31:16;8.73;;;2.65;;
70148;SDS011;57514;52.164;5.282;2022-12-29T09:33:43;12.40;;;2.40;;
70148;SDS011;57514;52.164;5.282;2022-12-29T09:36:10;9.88;;;2.72;;
70148;SDS011;57514;52.164;5.282;2022-12-29T09:38:38;13.13;;;3.13;;
70148;SDS011;57514;52.164;5.282;2022-12-29T09:41:06;9.63;;;2.75;;
70148;SDS011;57514;52.164;5.282;2022-12-29T09:43:43;7.53;;;2.70;;
70148;SDS011;57514;52.164;5.282;2022-12-29T09:46:25;6.72;;;2.22;;
70148;SDS011;57514;52.164;5.282;2022-12-29T09:51:41;11.15;;;2.60;;
70148;SDS011;57514;52.164;5.282;2022-12-29T09:56:49;16.27;;;2.60;;
70148;SDS011;57514;52.164;5.282;2022-12-29T09:59:19;17.80;;;3.47;;
70148;SDS011;57514;52.164;5.282;2022-12-29T10:01:57;9.50;;;2.75;;
70148;SDS011;57514;52.164;5.282;2022-12-29T10:04:27;4.97;;;2.08;;
70148;SDS011;57514;52.164;5.282;2022-12-29T10:07:00;7.82;;;2.13;;
70148;SDS011;57514;52.164;5.282;2022-12-29T10:09:53;7.75;;;2.63;;
70148;SDS011;57514;52.164;5.282;2022-12-29T10:15:13;7.85;;;2.25;;
70148;SDS011;57514;52.164;5.282;2022-12-29T10:20:38;5.28;;;1.63;;
70148;SDS011;57514;52.164;5.282;2022-12-29T10:25:43;8.40;;;2.20;;
70148;SDS011;57514;52.164;5.282;2022-12-29T10:28:21;6.70;;;1.70;;
70148;SDS011;57514;52.164;5.282;2022-12-29T10:30:49;5.05;;;2.13;;
70148;SDS011;57514;52.164;5.282;2022-12-29T10:33:19;12.32;;;2.67;;
70148;SDS011;57514;52.164;5.282;2022-12-29T10:35:50;8.77;;;2.15;;
70148;SDS011;57514;52.164;5.282;2022-12-29T10:38:25;6.40;;;2.17;;
70148;SDS011;57514;52.164;5.282;2022-12-29T10:41:04;12.38;;;3.05;;
70148;SDS011;57514;52.164;5.282;2022-12-29T10:43:34;9.27;;;2.00;;
70148;SDS011;57514;52.164;5.282;2022-12-29T10:46:07;6.88;;;2.33;;
70148;SDS011;57514;52.164;5.282;2022-12-29T10:48:36;9.60;;;2.50;;
70148;SDS011;57514;52.164;5.282;2022-12-29T10:51:05;9.75;;;3.38;;
70148;SDS011;57514;52.164;5.282;2022-12-29T10:53:38;10.95;;;2.95;;
70148;SDS011;57514;52.164;5.282;2022-12-29T10:56:11;10.65;;;3.17;;
70148;SDS011;57514;52.164;5.282;2022-12-29T10:58:40;13.95;;;3.17;;
70148;SDS011;57514;52.164;5.282;2022-12-29T11:01:14;15.05;;;3.35;;
70148;SDS011;57514;52.164;5.282;2022-12-29T11:06:39;9.25;;;2.63;;
70148;SDS011;57514;52.164;5.282;2022-12-29T11:09:14;12.25;;;2.97;;
70148;SDS011;57514;52.164;5.282;2022-12-29T11:11:42;12.75;;;3.20;;
70148;SDS011;57514;52.164;5.282;2022-12-29T11:14:13;12.73;;;3.25;;
70148;SDS011;57514;52.164;5.282;2022-12-29T11:16:40;14.30;;;3.20;;
70148;SDS011;57514;52.164;5.282;2022-12-29T11:19:23;10.55;;;3.05;;
70148;SDS011;57514;52.164;5.282;2022-12-29T11:21:51;13.98;;;3.50;;
70148;SDS011;57514;52.164;5.282;2022-12-29T11:24:25;7.43;;;2.70;;
70148;SDS011;57514;52.164;5.282;2022-12-29T11:27:08;14.15;;;3.17;;
70148;SDS011;57514;52.164;5.282;2022-12-29T11:29:40;20.92;;;3.72;;
70148;SDS011;57514;52.164;5.282;2022-12-29T11:32:12;17.02;;;3.70;;
70148;SDS011;57514;52.164;5.282;2022-12-29T11:34:39;13.70;;;3.97;;
70148;SDS011;57514;52.164;5.282;2022-12-29T11:37:11;12.70;;;2.92;;
70148;SDS011;57514;52.164;5.282;2022-12-29T11:39:46;13.27;;;3.40;;
70148;SDS011;57514;52.164;5.282;2022-12-29T11:42:16;14.82;;;4.22;;
70148;SDS011;57514;52.164;5.282;2022-12-29T11:44:45;14.52;;;3.95;;
70148;SDS011;57514;52.164;5.282;2022-12-29T11:47:19;13.63;;;3.60;;
70148;SDS011;57514;52.164;5.282;2022-12-29T11:49:49;9.82;;;3.30;;
70148;SDS011;57514;52.164;5.282;2022-12-29T11:52:20;14.73;;;4.10;;
70148;SDS011;57514;52.164;5.282;2022-12-29T11:54:47;11.82;;;2.92;;
70148;SDS011;57514;52.164;5.282;2022-12-29T11:57:17;12.30;;;2.80;;
70148;SDS011;57514;52.164;5.282;2022-12-29T11:59:49;15.65;;;3.28;;
70148;SDS011;57514;52.164;5.282;2022-12-29T12:05:10;16.33;;;3.80;;
70148;SDS011;57514;52.164;5.282;2022-12-29T12:07:43;20.85;;;3.47;;
70148;SDS011;57514;52.164;5.282;2022-12-29T12:10:15;19.77;;;3.53;;
70148;SDS011;57514;52.164;5.282;2022-12-29T12:15:31;20.58;;;3.53;;
70148;SDS011;57514;52.164;5.282;2022-12-29T12:21:00;15.15;;;3.75;;
70148;SDS011;57514;52.164;5.282;2022-12-29T12:23:50;16.42;;;3.47;;
70148;SDS011;57514;52.164;5.282;2022-12-29T12:26:34;19.23;;;3.33;;
70148;SDS011;57514;52.164;5.282;2022-12-29T12:29:09;18.50;;;3.80;;
70148;SDS011;57514;52.164;5.282;2022-12-29T12:31:57;12.30;;;3.15;;
70148;SDS011;57514;52.164;5.282;2022-12-29T12:34:28;16.33;;;3.50;;
70148;SDS011;57514;52.164;5.282;2022-12-29T12:39:40;13.35;;;3.00;;
70148;SDS011;57514;52.164;5.282;2022-12-29T12:44:42;19.30;;;4.47;;
70148;SDS011;57514;52.164;5.282;2022-12-29T12:47:23;16.80;;;3.85;;
70148;SDS011;57514;52.164;5.282;2022-12-29T12:49:59;9.00;;;3.15;;
70148;SDS011;57514;52.164;5.282;2022-12-29T12:55:34;17.95;;;3.22;;
70148;SDS011;57514;52.164;5.282;2022-12-29T13:08:25;14.68;;;3.40;;
70148;SDS011;57514;52.164;5.282;2022-12-29T13:10:59;11.90;;;2.75;;
70148;SDS011;57514;52.164;5.282;2022-12-29T13:20:56;11.23;;;2.80;;
70148;SDS011;57514;52.164;5.282;2022-12-29T13:26:14;13.73;;;2.92;;
70148;SDS011;57514;52.164;5.282;2022-12-29T13:36:58;11.35;;;2.47;;
70148;SDS011;57514;52.164;5.282;2022-12-29T13:39:09;9.68;;;2.22;;
70148;SDS011;57514;52.164;5.282;2022-12-29T13:42:04;11.90;;;3.25;;
70148;SDS011;57514;52.164;5.282;2022-12-29T13:47:21;10.43;;;2.70;;
70148;SDS011;57514;52.164;5.282;2022-12-29T13:49:49;10.10;;;3.08;;
70148;SDS011;57514;52.164;5.282;2022-12-29T13:52:34;11.90;;;3.22;;
70148;SDS011;57514;52.164;5.282;2022-12-29T13:55:18;7.00;;;2.28;;
70148;SDS011;57514;52.164;5.282;2022-12-29T13:58:03;15.65;;;3.67;;
70148;SDS011;57514;52.164;5.282;2022-12-29T14:00:43;14.98;;;3.63;;
70148;SDS011;57514;52.164;5.282;2022-12-29T14:03:17;14.43;;;3.78;;
70148;SDS011;57514;52.164;5.282;2022-12-29T14:08:39;11.75;;;4.13;;
70148;SDS011;57514;52.164;5.282;2022-12-29T14:11:14;13.77;;;3.58;;
70148;SDS011;57514;52.164;5.282;2022-12-29T14:13:43;12.73;;;4.13;;
70148;SDS011;57514;52.164;5.282;2022-12-29T14:16:21;12.20;;;3.10;;
70148;SDS011;57514;52.164;5.282;2022-12-29T14:18:51;15.82;;;3.20;;
70148;SDS011;57514;52.164;5.282;2022-12-29T14:21:21;10.25;;;3.08;;
70148;SDS011;57514;52.164;5.282;2022-12-29T14:23:50;8.82;;;3.00;;
70148;SDS011;57514;52.164;5.282;2022-12-29T14:26:33;9.75;;;3.33;;
70148;SDS011;57514;52.164;5.282;2022-12-29T14:32:35;7.32;;;2.60;;
70148;SDS011;57514;52.164;5.282;2022-12-29T14:34:59;10.98;;;3.40;;
70148;SDS011;57514;52.164;5.282;2022-12-29T14:37:30;4.95;;;1.95;;
70148;SDS011;57514;52.164;5.282;2022-12-29T14:40:17;8.90;;;2.30;;
70148;SDS011;57514;52.164;5.282;2022-12-29T14:42:46;6.07;;;2.55;;
70148;SDS011;57514;52.164;5.282;2022-12-29T14:47:42;4.50;;;1.73;;
70148;SDS011;57514;52.164;5.282;2022-12-29T14:52:46;6.57;;;2.58;;
70148;SDS011;57514;52.164;5.282;2022-12-29T14:57:43;6.95;;;2.85;;
70148;SDS011;57514;52.164;5.282;2022-12-29T15:02:39;11.65;;;2.95;;
70148;SDS011;57514;52.164;5.282;2022-12-29T15:05:19;6.78;;;3.05;;
70148;SDS011;57514;52.164;5.282;2022-12-29T15:07:49;9.35;;;2.80;;
70148;SDS011;57514;52.164;5.282;2022-12-29T15:10:16;11.10;;;3.45;;
70148;SDS011;57514;52.164;5.282;2022-12-29T15:12:51;14.63;;;4.85;;
70148;SDS011;57514;52.164;5.282;2022-12-29T15:15:26;13.55;;;4.20;;
70148;SDS011;57514;52.164;5.282;2022-12-29T15:17:56;14.55;;;3.17;;
70148;SDS011;57514;52.164;5.282;2022-12-29T15:20:27;13.45;;;4.25;;
70148;SDS011;57514;52.164;5.282;2022-12-29T15:25:22;11.60;;;2.97;;
70148;SDS011;57514;52.164;5.282;2022-12-29T15:27:51;7.55;;;2.47;;
70148;SDS011;57514;52.164;5.282;2022-12-29T15:30:19;7.53;;;3.38;;
70148;SDS011;57514;52.164;5.282;2022-12-29T15:32:47;10.02;;;3.78;;
70148;SDS011;57514;52.164;5.282;2022-12-29T15:35:21;11.98;;;3.35;;
70148;SDS011;57514;52.164;5.282;2022-12-29T15:37:49;8.18;;;2.95;;
70148;SDS011;57514;52.164;5.282;2022-12-29T15:40:22;7.68;;;2.60;;
70148;SDS011;57514;52.164;5.282;2022-12-29T15:45:20;12.35;;;4.40;;
70148;SDS011;57514;52.164;5.282;2022-12-29T15:47:51;13.27;;;4.78;;
70148;SDS011;57514;52.164;5.282;2022-12-29T15:52:48;8.05;;;2.75;;
70148;SDS011;57514;52.164;5.282;2022-12-29T15:55:19;12.05;;;3.05;;
70148;SDS011;57514;52.164;5.282;2022-12-29T15:57:47;12.02;;;3.42;;
70148;SDS011;57514;52.164;5.282;2022-12-29T16:00:21;12.23;;;2.60;;
70148;SDS011;57514;52.164;5.282;2022-12-29T16:02:49;7.78;;;1.92;;
70148;SDS011;57514;52.164;5.282;2022-12-29T16:05:17;7.55;;;2.47;;
70148;SDS011;57514;52.164;5.282;2022-12-29T16:07:55;9.07;;;2.60;;
70148;SDS011;57514;52.164;5.282;2022-12-29T16:10:25;7.28;;;2.22;;
70148;SDS011;57514;52.164;5.282;2022-12-29T16:12:53;5.57;;;2.05;;
70148;SDS011;57514;52.164;5.282;2022-12-29T16:15:20;14.63;;;2.20;;
70148;SDS011;57514;52.164;5.282;2022-12-29T16:17:48;8.82;;;2.45;;
70148;SDS011;57514;52.164;5.282;2022-12-29T16:21:18;9.48;;;3.13;;
70148;SDS011;57514;52.164;5.282;2022-12-29T16:24:31;9.50;;;3.25;;
70148;SDS011;57514;52.164;5.282;2022-12-29T16:27:20;12.00;;;2.90;;
70148;SDS011;57514;52.164;5.282;2022-12-29T16:29:49;10.85;;;3.92;;
70148;SDS011;57514;52.164;5.282;2022-12-29T16:32:28;7.07;;;2.70;;
70148;SDS011;57514;52.164;5.282;2022-12-29T16:35:10;10.93;;;3.10;;
70148;SDS011;57514;52.164;5.282;2022-12-29T16:37:37;7.53;;;2.88;;
70148;SDS011;57514;52.164;5.282;2022-12-29T16:42:47;9.68;;;2.70;;
70148;SDS011;57514;52.164;5.282;2022-12-29T16:50:37;6.97;;;1.90;;
70148;SDS011;57514;52.164;5.282;2022-12-29T16:53:05;7.70;;;2.63;;
70148;SDS011;57514;52.164;5.282;2022-12-29T16:55:33;8.95;;;2.90;;
70148;SDS011;57514;52.164;5.282;2022-12-29T16:58:01;8.00;;;2.17;;
70148;SDS011;57514;52.164;5.282;2022-12-29T17:00:48;8.70;;;2.10;;
70148;SDS011;57514;52.164;5.282;2022-12-29T17:03:16;7.15;;;2.63;;
70148;SDS011;57514;52.164;5.282;2022-12-29T17:05:43;6.50;;;2.00;;
70148;SDS011;57514;52.164;5.282;2022-12-29T17:08:18;9.05;;;2.75;;
70148;SDS011;57514;52.164;5.282;2022-12-29T17:10:53;11.15;;;3.17;;
70148;SDS011;57514;52.164;5.282;2022-12-29T17:13:40;7.93;;;2.20;;
70148;SDS011;57514;52.164;5.282;2022-12-29T17:16:07;6.63;;;2.63;;
70148;SDS011;57514;52.164;5.282;2022-12-29T17:18:39;6.78;;;2.20;;
70148;SDS011;57514;52.164;5.282;2022-12-29T17:21:06;7.13;;;2.70;;
70148;SDS011;57514;52.164;5.282;2022-12-29T17:23:34;8.30;;;2.45;;
70148;SDS011;57514;52.164;5.282;2022-12-29T17:26:01;12.05;;;3.40;;
70148;SDS011;57514;52.164;5.282;2022-12-29T17:28:29;12.57;;;5.13;;
70148;SDS011;57514;52.164;5.282;2022-12-29T17:30:59;8.25;;;3.42;;
70148;SDS011;57514;52.164;5.282;2022-12-29T17:33:27;10.02;;;3.20;;